Time;durP1;ratioP1;P1;durP2;ratioP2;P2;SDS_P1;SDS_P2;PMS_P1;PMS_P2;Temp;Humidity;BMP_temperature;BMP_pressure;BME280_temperature;BME280_humidity;BME280_pressure;Samples;Min_cycle;Max_cycle;Signal;HPM_P1;HPM_P2
2023/12/15 00:02:08;;;;;;;0.00;0.00;;;5.60;99.90;;;;;;5094049;28;20187;-71
2023/12/15 00:04:34;;;;;;;0.00;0.00;;;5.60;99.90;;;;;;5109903;28;20191;-71
2023/12/15 00:06:59;;;;;;;0.00;0.00;;;5.60;99.90;;;;;;5094281;28;20805;-70
2023/12/15 00:09:25;;;;;;;0.00;0.00;;;5.60;99.90;;;;;;5099675;28;20179;-70
2023/12/15 00:11:50;;;;;;;0.00;0.00;;;5.60;99.90;;;;;;5105961;28;20638;-70
2023/12/15 00:14:16;;;;;;;0.03;0.03;;;5.60;99.90;;;;;;5094541;28;20179;-70
2023/12/15 00:16:41;;;;;;;0.00;0.00;;;5.60;99.90;;;;;;5102021;28;20207;-70
2023/12/15 00:19:07;;;;;;;0.00;0.00;;;5.60;99.90;;;;;;5100996;28;20215;-72
2023/12/15 00:21:32;;;;;;;0.00;0.00;;;5.60;99.90;;;;;;5096018;28;20182;-71
2023/12/15 00:23:58;;;;;;;0.00;0.00;;;5.60;99.90;;;;;;5108366;28;20187;-71
2023/12/15 00:26:23;;;;;;;0.00;0.00;;;5.50;99.90;;;;;;5094346;28;20171;-72
2023/12/15 00:28:49;;;;;;;0.00;0.00;;;5.50;99.90;;;;;;5103465;28;20177;-71
2023/12/15 00:31:14;;;;;;;0.00;0.00;;;5.50;99.90;;;;;;5101023;28;20183;-72
2023/12/15 00:33:40;;;;;;;0.00;0.00;;;5.50;99.90;;;;;;5096572;28;20181;-71
2023/12/15 00:36:06;;;;;;;0.00;0.00;;;5.50;99.90;;;;;;5102073;28;20187;-71
2023/12/15 00:38:31;;;;;;;0.08;0.08;;;5.50;99.90;;;;;;5065654;28;20192;-71
2023/12/15 00:40:57;;;;;;;0.10;0.10;;;5.50;99.90;;;;;;5070768;28;20656;-72
2023/12/15 00:43:22;;;;;;;0.05;0.05;;;5.60;99.90;;;;;;5065311;28;20180;-72
2023/12/15 00:45:48;;;;;;;0.00;0.00;;;5.60;99.90;;;;;;5073537;28;20184;-71
2023/12/15 00:48:13;;;;;;;0.00;0.00;;;5.60;99.90;;;;;;5055984;28;20185;-72
2023/12/15 00:50:39;;;;;;;0.00;0.00;;;5.60;99.90;;;;;;5054594;28;20182;-71
2023/12/15 00:53:04;;;;;;;0.10;0.10;;;5.60;99.90;;;;;;5056762;28;20360;-72
2023/12/15 00:55:30;;;;;;;0.10;0.10;;;5.60;99.90;;;;;;5054009;28;20223;-72
2023/12/15 00:57:55;;;;;;;0.00;0.00;;;5.60;99.90;;;;;;5053953;28;20198;-72
2023/12/15 01:00:21;;;;;;;0.10;0.10;;;5.60;99.90;;;;;;5053860;28;20217;-71
2023/12/15 01:02:46;;;;;;;0.00;0.00;;;5.60;99.90;;;;;;5058954;28;20558;-71
2023/12/15 01:05:12;;;;;;;0.00;0.00;;;5.60;99.90;;;;;;5073235;28;20188;-70
2023/12/15 01:07:37;;;;;;;0.15;0.15;;;5.50;99.90;;;;;;5070760;28;20242;-71
2023/12/15 01:10:03;;;;;;;0.00;0.00;;;5.50;99.90;;;;;;5053772;28;20545;-71
2023/12/15 01:12:29;;;;;;;0.00;0.00;;;5.50;99.90;;;;;;5055770;28;20185;-71
2023/12/15 01:14:54;;;;;;;0.00;0.00;;;5.50;99.90;;;;;;5067226;28;20174;-71
2023/12/15 01:17:20;;;;;;;0.10;0.10;;;5.50;99.90;;;;;;5063025;28;20180;-71
2023/12/15 01:19:45;;;;;;;0.30;0.30;;;5.50;99.90;;;;;;5053608;28;20640;-71
2023/12/15 01:22:11;;;;;;;0.00;0.00;;;5.50;99.90;;;;;;5065553;28;20544;-71
2023/12/15 01:24:36;;;;;;;0.10;0.10;;;5.50;99.90;;;;;;5056431;28;20268;-71
2023/12/15 01:27:02;;;;;;;0.00;0.00;;;5.50;99.90;;;;;;5053437;28;20177;-71
2023/12/15 01:29:27;;;;;;;0.00;0.00;;;5.50;99.90;;;;;;5060294;28;20264;-71
2023/12/15 01:31:53;;;;;;;0.00;0.00;;;5.50;99.90;;;;;;5053279;28;20173;-71
2023/12/15 01:34:18;;;;;;;0.55;0.32;;;5.50;99.90;;;;;;5052671;28;20189;-72
2023/12/15 01:36:44;;;;;;;0.00;0.00;;;5.50;99.90;;;;;;5077814;28;20204;-71
2023/12/15 01:39:09;;;;;;;0.52;0.52;;;5.50;99.90;;;;;;5095900;28;20211;-71
2023/12/15 01:41:35;;;;;;;0.00;0.00;;;5.50;99.90;;;;;;5096283;28;21800;-72
2023/12/15 01:44:00;;;;;;;0.32;0.32;;;5.50;99.90;;;;;;5097792;28;20180;-72
2023/12/15 01:46:26;;;;;;;0.00;0.00;;;5.50;99.90;;;;;;5093582;28;20188;-72
2023/12/15 01:48:52;;;;;;;0.00;0.00;;;5.50;99.90;;;;;;5093363;28;20263;-72
2023/12/15 01:51:17;;;;;;;0.00;0.00;;;5.50;99.90;;;;;;5095814;28;20600;-71
2023/12/15 01:53:43;;;;;;;0.00;0.00;;;5.50;99.90;;;;;;5112125;28;20219;-72
2023/12/15 01:56:09;;;;;;;0.52;0.52;;;5.50;99.90;;;;;;5097807;28;20235;-72
2023/12/15 01:58:35;;;;;;;0.00;0.00;;;5.50;99.90;;;;;;5093202;28;20212;-71
2023/12/15 02:01:00;;;;;;;0.22;0.22;;;5.50;99.90;;;;;;5093199;28;20219;-71
2023/12/15 02:03:26;;;;;;;0.00;0.00;;;5.50;99.90;;;;;;5102031;28;20546;-71
2023/12/15 02:05:51;;;;;;;0.00;0.00;;;5.50;99.90;;;;;;5100242;28;20187;-70
2023/12/15 02:08:17;;;;;;;0.00;0.00;;;5.50;99.90;;;;;;5094052;28;20263;-71
2023/12/15 02:10:42;;;;;;;0.00;0.00;;;5.60;99.90;;;;;;5093074;28;20203;-71
2023/12/15 02:13:08;;;;;;;0.00;0.00;;;5.60;99.90;;;;;;5092836;28;20192;-71
2023/12/15 02:15:34;;;;;;;0.38;0.38;;;5.50;99.90;;;;;;5092939;28;20577;-71
2023/12/15 02:17:59;;;;;;;0.00;0.00;;;5.50;99.90;;;;;;5092659;28;20233;-72
2023/12/15 02:20:26;;;;;;;0.10;0.10;;;5.50;99.90;;;;;;5093194;28;20277;-72
2023/12/15 02:22:52;;;;;;;0.00;0.00;;;5.50;99.90;;;;;;5095987;28;20179;-71
2023/12/15 02:25:18;;;;;;;0.10;0.10;;;5.50;99.90;;;;;;5094313;28;20651;-71
2023/12/15 02:27:43;;;;;;;0.00;0.00;;;5.50;99.90;;;;;;5102759;28;20187;-72
2023/12/15 02:30:09;;;;;;;0.00;0.00;;;5.50;99.90;;;;;;5092550;28;20187;-71
2023/12/15 02:32:34;;;;;;;0.00;0.00;;;5.60;99.90;;;;;;5098555;28;20656;-71
2023/12/15 02:35:00;;;;;;;0.10;0.10;;;5.50;99.90;;;;;;5096843;28;20181;-71
2023/12/15 02:37:27;;;;;;;0.00;0.00;;;5.50;99.90;;;;;;5104603;28;20687;-71
2023/12/15 02:39:52;;;;;;;0.40;0.40;;;5.50;99.90;;;;;;5092126;28;20645;-71
2023/12/15 02:42:18;;;;;;;0.00;0.00;;;5.50;99.90;;;;;;5092182;28;20204;-72
2023/12/15 02:44:45;;;;;;;0.00;0.00;;;5.50;99.90;;;;;;5110241;28;20627;-72
2023/12/15 02:47:10;;;;;;;0.00;0.00;;;5.50;99.90;;;;;;5112191;28;20176;-72
2023/12/15 02:49:39;;;;;;;0.22;0.22;;;5.50;99.90;;;;;;5106855;28;20190;-72
2023/12/15 02:52:06;;;;;;;0.00;0.00;;;5.50;99.90;;;;;;5112365;28;20175;-71
2023/12/15 02:54:32;;;;;;;0.00;0.00;;;5.50;99.90;;;;;;5112490;28;20175;-72
2023/12/15 02:56:57;;;;;;;0.10;0.10;;;5.40;99.90;;;;;;5111654;28;20189;-71
2023/12/15 02:59:23;;;;;;;0.00;0.00;;;5.40;99.90;;;;;;5112096;28;20215;-71
2023/12/15 03:01:48;;;;;;;0.00;0.00;;;5.40;99.90;;;;;;5102490;27;20195;-71
2023/12/15 03:04:14;;;;;;;0.00;0.00;;;5.40;99.90;;;;;;5092248;28;20187;-72
2023/12/15 03:06:39;;;;;;;0.00;0.00;;;5.40;99.90;;;;;;5107987;28;20673;-72
2023/12/15 03:09:05;;;;;;;0.00;0.00;;;5.40;99.90;;;;;;5095137;28;20203;-71
2023/12/15 03:11:30;;;;;;;0.00;0.00;;;5.40;99.90;;;;;;5110731;28;20244;-71
2023/12/15 03:13:56;;;;;;;0.00;0.00;;;5.30;99.90;;;;;;5109486;28;20509;-70
2023/12/15 03:16:24;;;;;;;0.00;0.00;;;5.30;99.90;;;;;;5098121;28;20191;-71
2023/12/15 03:18:49;;;;;;;0.32;0.32;;;5.30;99.90;;;;;;5105150;28;20234;-70
2023/12/15 03:21:15;;;;;;;0.00;0.00;;;5.30;99.90;;;;;;5092857;28;20184;-71
2023/12/15 03:23:41;;;;;;;0.00;0.00;;;5.20;99.90;;;;;;5102826;28;20225;-70
2023/12/15 03:26:06;;;;;;;0.00;0.00;;;5.20;99.90;;;;;;5106519;28;20282;-72
2023/12/15 03:28:32;;;;;;;0.00;0.00;;;5.20;99.90;;;;;;5101500;28;20263;-71
2023/12/15 03:30:57;;;;;;;0.00;0.00;;;5.20;99.90;;;;;;5104929;28;20708;-72
2023/12/15 03:33:25;;;;;;;0.00;0.00;;;5.20;99.90;;;;;;5105113;28;20207;-72
2023/12/15 03:35:50;;;;;;;0.00;0.00;;;5.20;99.90;;;;;;5096319;28;20236;-71
2023/12/15 03:38:16;;;;;;;0.20;0.20;;;5.20;99.90;;;;;;5099651;28;20699;-72
2023/12/15 03:40:42;;;;;;;0.05;0.05;;;5.20;99.90;;;;;;5091481;28;20667;-71
2023/12/15 03:43:07;;;;;;;0.00;0.00;;;5.20;99.90;;;;;;5091285;28;20264;-71
2023/12/15 03:45:33;;;;;;;0.00;0.00;;;5.30;99.90;;;;;;5102776;28;20539;-72
2023/12/15 03:47:58;;;;;;;0.08;0.08;;;5.30;99.90;;;;;;5098783;28;20777;-71
2023/12/15 03:50:24;;;;;;;0.00;0.00;;;5.30;99.90;;;;;;5093135;28;20183;-71
2023/12/15 03:52:50;;;;;;;0.10;0.10;;;5.30;99.90;;;;;;5096173;28;20183;-71
2023/12/15 03:55:15;;;;;;;0.00;0.00;;;5.30;99.90;;;;;;5096400;28;20631;-71
2023/12/15 03:57:41;;;;;;;0.00;0.00;;;5.30;99.90;;;;;;5099949;28;20275;-72
2023/12/15 04:00:08;;;;;;;0.00;0.00;;;5.30;99.90;;;;;;5100112;28;20226;-71
2023/12/15 04:02:34;;;;;;;0.00;0.00;;;5.30;99.90;;;;;;5096644;28;20176;-71
2023/12/15 04:05:00;;;;;;;0.00;0.00;;;5.30;99.90;;;;;;5110140;28;20243;-71
2023/12/15 04:07:25;;;;;;;0.00;0.00;;;5.40;99.90;;;;;;5105536;28;20187;-72
2023/12/15 04:09:51;;;;;;;0.00;0.00;;;5.40;99.90;;;;;;5097745;28;20180;-71
2023/12/15 04:12:17;;;;;;;0.00;0.00;;;5.40;99.90;;;;;;5098950;28;20687;-72
2023/12/15 04:14:43;;;;;;;0.00;0.00;;;5.40;99.90;;;;;;5109187;28;20267;-72
2023/12/15 04:17:08;;;;;;;0.70;0.45;;;5.40;99.90;;;;;;5097578;28;20179;-71
2023/12/15 04:19:34;;;;;;;2.50;0.15;;;5.40;99.90;;;;;;5113037;28;20221;-71
2023/12/15 04:21:59;;;;;;;0.00;0.00;;;5.40;99.90;;;;;;5114870;28;20207;-72
2023/12/15 04:24:25;;;;;;;0.20;0.20;;;5.40;99.90;;;;;;5105373;28;20191;-71
2023/12/15 04:26:51;;;;;;;0.00;0.00;;;5.40;99.90;;;;;;5097509;28;20178;-67
2023/12/15 04:29:17;;;;;;;0.00;0.00;;;5.50;99.90;;;;;;5098824;28;20242;-73
2023/12/15 04:31:43;;;;;;;0.00;0.00;;;5.50;99.90;;;;;;5110199;28;20191;-73
2023/12/15 04:34:09;;;;;;;0.38;0.38;;;5.40;99.90;;;;;;5105259;27;20176;-72
2023/12/15 04:36:35;;;;;;;0.93;0.85;;;5.40;99.90;;;;;;5097437;28;20227;-70
2023/12/15 04:39:00;;;;;;;0.00;0.00;;;5.40;99.90;;;;;;5105241;28;20183;-68
2023/12/15 04:41:27;;;;;;;0.00;0.00;;;5.40;99.90;;;;;;5112792;28;20715;-69
2023/12/15 04:43:52;;;;;;;0.00;0.00;;;5.60;99.90;;;;;;5100440;27;20635;-73
2023/12/15 04:46:30;;;;;;;0.10;0.10;;;5.60;99.90;;;;;;5112325;27;20179;-68
2023/12/15 04:48:57;;;;;;;0.00;0.00;;;5.60;99.90;;;;;;5108728;28;20178;-74
2023/12/15 04:51:23;;;;;;;0.00;0.00;;;5.60;99.90;;;;;;5111373;28;20187;-68
2023/12/15 04:53:49;;;;;;;0.00;0.00;;;5.50;99.90;;;;;;5101939;27;20197;-67
2023/12/15 04:56:16;;;;;;;0.00;0.00;;;5.50;99.90;;;;;;5113100;27;20184;-67
2023/12/15 04:58:42;;;;;;;0.00;0.00;;;5.50;99.90;;;;;;5104955;28;20258;-70
2023/12/15 05:01:13;;;;;;;0.00;0.00;;;5.50;99.90;;;;;;5106043;28;20248;-73
2023/12/15 05:03:39;;;;;;;0.00;0.00;;;5.50;99.90;;;;;;5111967;28;20183;-73
2023/12/15 05:06:05;;;;;;;0.00;0.00;;;5.50;99.90;;;;;;5117168;27;20267;-73
2023/12/15 05:08:30;;;;;;;0.00;0.00;;;5.50;99.90;;;;;;5113199;27;20267;-72
2023/12/15 05:10:57;;;;;;;0.28;0.28;;;5.50;99.90;;;;;;5097291;28;20199;-72
2023/12/15 05:13:22;;;;;;;0.00;0.00;;;5.50;99.90;;;;;;5098359;28;20184;-72
2023/12/15 05:15:48;;;;;;;0.08;0.08;;;5.50;99.90;;;;;;5097245;28;20172;-73
2023/12/15 05:18:13;;;;;;;0.00;0.00;;;5.40;99.90;;;;;;5096469;28;20180;-71
2023/12/15 05:20:39;;;;;;;0.00;0.00;;;5.50;99.90;;;;;;5094217;28;20293;-72
2023/12/15 05:23:05;;;;;;;0.00;0.00;;;5.50;99.90;;;;;;5093950;28;20207;-72
2023/12/15 05:25:31;;;;;;;0.00;0.00;;;5.50;99.90;;;;;;5094020;28;20196;-71
2023/12/15 05:27:57;;;;;;;0.00;0.00;;;5.40;99.90;;;;;;5107075;28;20180;-70
2023/12/15 05:30:22;;;;;;;0.00;0.00;;;5.40;99.90;;;;;;5114254;28;20195;-68
2023/12/15 05:32:48;;;;;;;0.00;0.00;;;5.80;99.90;;;;;;5094109;28;20222;-71
2023/12/15 05:35:13;;;;;;;0.00;0.00;;;6.50;99.90;;;;;;5093853;28;20642;-71
2023/12/15 05:37:39;;;;;;;0.00;0.00;;;7.00;99.90;;;;;;5098266;28;20223;-71
2023/12/15 05:40:05;;;;;;;0.00;0.00;;;7.30;99.90;;;;;;5114212;28;20700;-71
2023/12/15 05:42:30;;;;;;;0.00;0.00;;;7.10;99.90;;;;;;5098249;28;20797;-72
2023/12/15 05:44:56;;;;;;;0.00;0.00;;;6.90;99.90;;;;;;5096051;28;20191;-71
2023/12/15 05:47:21;;;;;;;0.00;0.00;;;6.70;99.90;;;;;;5113900;28;20179;-72
2023/12/15 05:49:47;;;;;;;0.10;0.10;;;6.50;99.90;;;;;;5112834;28;20172;-71
2023/12/15 05:52:14;;;;;;;0.00;0.00;;;6.20;99.90;;;;;;5112453;28;20213;-72
2023/12/15 05:54:40;;;;;;;0.00;0.00;;;6.00;99.90;;;;;;5113245;27;20183;-72
2023/12/15 05:57:06;;;;;;;0.00;0.00;;;5.80;99.90;;;;;;5113003;28;20176;-72
2023/12/15 05:59:32;;;;;;;0.00;0.00;;;5.70;99.90;;;;;;5113201;28;20289;-70
2023/12/15 06:01:57;;;;;;;0.00;0.00;;;5.60;99.90;;;;;;5114153;28;20709;-72
2023/12/15 06:04:23;;;;;;;0.00;0.00;;;5.50;99.90;;;;;;5113698;28;20174;-72
2023/12/15 06:06:50;;;;;;;0.00;0.00;;;5.50;99.90;;;;;;5113613;28;20164;-71
2023/12/15 06:09:15;;;;;;;0.00;0.00;;;5.40;99.90;;;;;;5113703;28;20180;-71
2023/12/15 06:11:41;;;;;;;0.00;0.00;;;5.30;99.90;;;;;;5113499;27;20179;-71
2023/12/15 06:14:08;;;;;;;0.00;0.00;;;5.30;99.90;;;;;;5113284;28;20573;-72
2023/12/15 06:16:33;;;;;;;0.00;0.00;;;5.30;99.90;;;;;;5113571;28;20176;-71
2023/12/15 06:18:59;;;;;;;0.00;0.00;;;5.30;99.90;;;;;;5113196;28;20611;-71
2023/12/15 06:21:26;;;;;;;0.00;0.00;;;5.30;99.90;;;;;;5113558;28;20172;-71
2023/12/15 06:23:53;;;;;;;0.00;0.00;;;5.30;99.90;;;;;;5113865;28;20160;-71
2023/12/15 06:26:25;;;;;;;0.00;0.00;;;5.20;99.90;;;;;;5114069;27;20194;-72
2023/12/15 06:28:53;;;;;;;0.00;0.00;;;5.20;99.90;;;;;;5113264;28;20163;-71
2023/12/15 06:31:18;;;;;;;0.05;0.05;;;5.20;99.90;;;;;;5112540;27;20182;-72
2023/12/15 06:33:44;;;;;;;1.48;0.25;;;5.20;99.90;;;;;;5112927;28;20180;-72
2023/12/15 06:36:10;;;;;;;0.00;0.00;;;5.20;99.90;;;;;;5112530;28;20657;-71
2023/12/15 06:38:36;;;;;;;0.00;0.00;;;5.20;99.90;;;;;;5094794;27;20184;-70
2023/12/15 06:41:05;;;;;;;0.00;0.00;;;5.20;99.90;;;;;;5092226;28;20207;-72
2023/12/15 06:43:31;;;;;;;0.10;0.10;;;5.20;99.90;;;;;;5092162;28;20172;-71
2023/12/15 06:45:57;;;;;;;0.10;0.10;;;5.20;99.90;;;;;;5092083;28;20230;-71
2023/12/15 06:48:22;;;;;;;0.08;0.08;;;5.20;99.90;;;;;;5092204;28;20200;-71
2023/12/15 06:50:48;;;;;;;0.00;0.00;;;5.20;99.90;;;;;;5092205;28;20184;-71
2023/12/15 06:53:13;;;;;;;0.00;0.00;;;5.20;99.90;;;;;;5092133;28;20176;-71
2023/12/15 06:55:39;;;;;;;0.03;0.03;;;5.30;99.90;;;;;;5092090;28;20236;-72
2023/12/15 06:58:04;;;;;;;0.00;0.00;;;5.20;99.90;;;;;;5092092;28;20225;-72
2023/12/15 07:00:30;;;;;;;0.00;0.00;;;5.20;99.90;;;;;;5091865;28;20345;-72
2023/12/15 07:02:55;;;;;;;0.00;0.00;;;5.20;99.90;;;;;;5091858;28;20650;-72
2023/12/15 07:05:21;;;;;;;0.05;0.05;;;5.20;99.90;;;;;;5091996;28;20180;-71
2023/12/15 07:07:46;;;;;;;0.10;0.10;;;5.20;99.90;;;;;;5091746;28;20695;-71
2023/12/15 07:10:12;;;;;;;0.00;0.00;;;5.20;99.90;;;;;;5091607;28;20180;-70
2023/12/15 07:12:37;;;;;;;0.00;0.00;;;5.20;99.90;;;;;;5091722;28;20172;-71
2023/12/15 07:15:03;;;;;;;0.00;0.00;;;5.20;99.90;;;;;;5091745;28;20251;-71
2023/12/15 07:17:29;;;;;;;0.00;0.00;;;5.20;99.90;;;;;;5091500;28;20695;-70
2023/12/15 07:19:54;;;;;;;0.00;0.00;;;5.20;99.90;;;;;;5091371;28;20211;-72
2023/12/15 07:22:20;;;;;;;0.08;0.08;;;5.20;99.90;;;;;;5091611;28;20175;-71
2023/12/15 07:24:45;;;;;;;0.08;0.08;;;5.20;99.90;;;;;;5091816;28;20245;-72
2023/12/15 07:27:11;;;;;;;0.00;0.00;;;5.30;99.90;;;;;;5091358;28;20187;-72
2023/12/15 07:29:36;;;;;;;0.20;0.20;;;5.30;99.90;;;;;;5091612;28;20856;-72
2023/12/15 07:32:02;;;;;;;0.30;0.30;;;5.40;99.90;;;;;;5090252;28;20638;-72
2023/12/15 07:34:27;;;;;;;0.00;0.00;;;5.40;99.90;;;;;;5091489;28;20176;-73
2023/12/15 07:36:53;;;;;;;0.00;0.00;;;5.40;99.90;;;;;;5094149;28;20287;-71
2023/12/15 07:39:21;;;;;;;0.00;0.00;;;5.50;99.90;;;;;;5091364;28;20211;-72
2023/12/15 07:41:50;;;;;;;0.00;0.00;;;5.50;99.90;;;;;;5090604;28;20172;-70
2023/12/15 07:44:16;;;;;;;0.00;0.00;;;5.50;99.90;;;;;;5091430;28;20176;-71
2023/12/15 07:46:43;;;;;;;0.00;0.00;;;5.50;99.90;;;;;;5091100;28;20187;-72
2023/12/15 07:49:10;;;;;;;0.52;0.52;;;5.50;99.90;;;;;;5091088;28;20951;-72
2023/12/15 07:51:36;;;;;;;0.00;0.00;;;5.50;99.90;;;;;;5091175;28;20179;-71
2023/12/15 07:54:02;;;;;;;0.28;0.28;;;5.50;99.90;;;;;;5091147;28;20180;-71
2023/12/15 07:56:28;;;;;;;0.00;0.00;;;5.50;99.90;;;;;;5091304;28;20536;-71
2023/12/15 07:58:56;;;;;;;0.30;0.30;;;5.60;99.90;;;;;;5090915;28;20204;-71
2023/12/15 08:01:23;;;;;;;0.52;0.52;;;5.60;99.90;;;;;;5091038;28;20180;-72
2023/12/15 08:03:52;;;;;;;0.00;0.00;;;5.60;99.90;;;;;;5090826;28;20433;-71
2023/12/15 08:06:18;;;;;;;0.03;0.03;;;5.60;99.90;;;;;;5090988;28;20666;-71
2023/12/15 08:08:45;;;;;;;0.00;0.00;;;5.60;99.90;;;;;;5090998;28;20267;-72
2023/12/15 08:11:11;;;;;;;0.22;0.22;;;5.60;99.90;;;;;;5090838;28;20203;-71
2023/12/15 08:13:38;;;;;;;0.00;0.00;;;5.60;99.90;;;;;;5090967;28;20179;-71
2023/12/15 08:16:04;;;;;;;0.38;0.38;;;5.70;99.90;;;;;;5090805;28;20259;-71
2023/12/15 08:18:31;;;;;;;0.00;0.00;;;5.70;99.90;;;;;;5090659;28;20176;-71
2023/12/15 08:21:00;;;;;;;0.13;0.13;;;5.80;99.90;;;;;;5090659;28;20302;-70
2023/12/15 08:23:26;;;;;;;0.17;0.17;;;5.80;99.90;;;;;;5090860;28;20172;-71
2023/12/15 08:25:52;;;;;;;0.52;0.52;;;5.90;99.90;;;;;;5090648;28;20244;-72
2023/12/15 08:28:19;;;;;;;0.00;0.00;;;5.90;99.90;;;;;;5090685;28;20744;-71
2023/12/15 08:30:45;;;;;;;0.00;0.00;;;5.90;99.90;;;;;;5090702;28;20632;-72
2023/12/15 08:33:11;;;;;;;0.00;0.00;;;6.00;99.90;;;;;;5090436;28;20179;-72
2023/12/15 08:35:36;;;;;;;0.05;0.05;;;6.00;99.90;;;;;;5090708;28;20184;-71
2023/12/15 08:38:02;;;;;;;0.00;0.00;;;6.00;99.90;;;;;;5093493;28;20231;-72
2023/12/15 08:40:27;;;;;;;0.00;0.00;;;6.10;99.90;;;;;;5090687;28;20697;-72
2023/12/15 08:42:53;;;;;;;0.55;0.55;;;6.10;99.90;;;;;;5090423;28;20183;-73
2023/12/15 08:45:19;;;;;;;0.17;0.17;;;6.20;99.90;;;;;;5090533;28;20278;-71
2023/12/15 08:47:44;;;;;;;0.00;0.00;;;6.20;99.90;;;;;;5090629;28;20180;-71
2023/12/15 08:50:10;;;;;;;0.03;0.03;;;6.20;99.90;;;;;;5090295;28;20757;-72
2023/12/15 08:52:36;;;;;;;0.08;0.08;;;6.20;99.90;;;;;;5090559;28;20176;-72
2023/12/15 08:55:01;;;;;;;0.00;0.00;;;6.30;99.90;;;;;;5094074;28;20172;-71
2023/12/15 08:57:27;;;;;;;0.00;0.00;;;6.40;99.90;;;;;;5094422;28;20584;-72
2023/12/15 08:59:53;;;;;;;0.00;0.00;;;6.40;99.90;;;;;;5094051;28;20227;-71
2023/12/15 09:02:18;;;;;;;0.10;0.10;;;6.50;99.90;;;;;;5094265;28;20174;-71
2023/12/15 09:04:44;;;;;;;0.00;0.00;;;6.50;99.90;;;;;;5094146;28;20203;-72
2023/12/15 09:07:09;;;;;;;0.00;0.00;;;6.60;99.90;;;;;;5093911;28;20184;-72
2023/12/15 09:09:36;;;;;;;0.00;0.00;;;6.70;99.90;;;;;;5094122;28;20176;-72
2023/12/15 09:12:01;;;;;;;0.00;0.00;;;6.90;99.90;;;;;;5093990;28;20180;-72
2023/12/15 09:14:29;;;;;;;0.00;0.00;;;7.00;99.90;;;;;;5094101;28;20263;-72
2023/12/15 09:16:55;;;;;;;0.35;0.35;;;7.10;99.90;;;;;;5093860;28;20168;-72
2023/12/15 09:19:21;;;;;;;0.17;0.17;;;7.10;99.90;;;;;;5093902;28;20216;-72
2023/12/15 09:21:46;;;;;;;0.00;0.00;;;7.20;99.90;;;;;;5093886;28;20269;-72
2023/12/15 09:24:14;;;;;;;0.00;0.00;;;7.20;99.90;;;;;;5093660;28;20199;-72
2023/12/15 09:26:42;;;;;;;0.10;0.10;;;7.20;99.90;;;;;;5093792;28;20180;-72
2023/12/15 09:29:08;;;;;;;0.00;0.00;;;7.20;99.90;;;;;;5093566;28;20176;-72
2023/12/15 09:31:34;;;;;;;0.57;0.57;;;7.20;99.90;;;;;;5093684;28;20631;-72
2023/12/15 09:34:00;;;;;;;0.10;0.10;;;7.20;99.90;;;;;;5093554;28;20191;-72
2023/12/15 09:36:26;;;;;;;0.00;0.00;;;7.30;99.90;;;;;;5093376;28;20203;-72
2023/12/15 09:38:52;;;;;;;0.38;0.10;;;7.30;99.90;;;;;;5096394;28;20191;-72
2023/12/15 09:41:18;;;;;;;0.00;0.00;;;7.30;99.90;;;;;;5093485;28;20180;-72
2023/12/15 09:43:44;;;;;;;0.00;0.00;;;7.30;99.90;;;;;;5093531;28;20188;-71
2023/12/15 09:46:10;;;;;;;0.00;0.00;;;7.20;99.90;;;;;;5093241;28;20205;-71
2023/12/15 09:48:37;;;;;;;0.00;0.00;;;7.20;99.90;;;;;;5093463;28;20248;-71
2023/12/15 09:51:08;;;;;;;0.00;0.00;;;7.20;99.90;;;;;;5093395;28;20724;-72
2023/12/15 09:53:38;;;;;;;0.22;0.22;;;7.30;99.90;;;;;;5093381;28;20183;-71
2023/12/15 09:56:05;;;;;;;0.00;0.00;;;7.20;99.90;;;;;;5093490;28;20174;-72
2023/12/15 09:58:31;;;;;;;0.00;0.00;;;7.20;99.90;;;;;;5093016;28;20172;-70
2023/12/15 10:00:57;;;;;;;0.00;0.00;;;7.20;99.90;;;;;;5092943;28;20208;-71
2023/12/15 10:03:23;;;;;;;0.00;0.00;;;7.20;99.90;;;;;;5093021;28;20179;-72
2023/12/15 10:05:49;;;;;;;0.00;0.00;;;7.20;99.90;;;;;;5091900;28;20229;-71
2023/12/15 10:08:14;;;;;;;0.10;0.10;;;7.20;99.90;;;;;;5092726;28;20172;-72
2023/12/15 10:10:40;;;;;;;0.00;0.00;;;7.30;99.90;;;;;;5092761;28;20183;-72
2023/12/15 10:13:05;;;;;;;0.00;0.00;;;7.30;99.90;;;;;;5092665;28;20171;-69
2023/12/15 10:15:31;;;;;;;0.17;0.17;;;7.40;99.90;;;;;;5092666;28;20183;-72
2023/12/15 10:17:59;;;;;;;0.00;0.00;;;7.40;99.90;;;;;;5092636;28;20647;-71
2023/12/15 10:20:25;;;;;;;0.00;0.00;;;7.50;99.90;;;;;;5092582;28;20242;-72
2023/12/15 10:23:04;;;;;;;0.00;0.00;;;7.50;99.90;;;;;;5092446;28;20532;-71
2023/12/15 10:25:32;;;;;;;0.00;0.00;;;7.50;99.90;;;;;;5092482;28;20232;-72
2023/12/15 10:27:58;;;;;;;0.00;0.00;;;7.50;99.90;;;;;;5092407;28;20176;-72
2023/12/15 10:30:24;;;;;;;0.00;0.00;;;7.50;99.90;;;;;;5092494;28;20171;-72
2023/12/15 10:32:49;;;;;;;0.00;0.00;;;7.40;99.90;;;;;;5092228;28;20172;-70
2023/12/15 10:35:17;;;;;;;0.00;0.00;;;7.30;99.90;;;;;;5091076;28;20176;-71
2023/12/15 10:37:43;;;;;;;0.00;0.00;;;7.30;99.90;;;;;;5095083;28;20698;-71
2023/12/15 10:40:09;;;;;;;0.00;0.00;;;7.30;99.90;;;;;;5091973;28;20226;-72
2023/12/15 10:42:35;;;;;;;0.00;0.00;;;7.30;99.90;;;;;;5092246;28;20175;-71
2023/12/15 10:45:07;;;;;;;0.00;0.00;;;7.30;99.90;;;;;;5092081;28;20543;-71
2023/12/15 10:47:33;;;;;;;0.00;0.00;;;7.20;99.90;;;;;;5091995;28;20176;-72
2023/12/15 10:50:00;;;;;;;0.10;0.10;;;7.20;99.90;;;;;;5092046;28;20188;-71
2023/12/15 10:52:26;;;;;;;0.00;0.00;;;7.30;99.90;;;;;;5091898;28;20810;-72
2023/12/15 10:54:53;;;;;;;0.00;0.00;;;7.30;99.90;;;;;;5091825;28;20571;-71
2023/12/15 10:57:20;;;;;;;0.10;0.10;;;7.30;99.90;;;;;;5091874;28;20180;-72
2023/12/15 10:59:48;;;;;;;0.00;0.00;;;7.30;99.90;;;;;;5091724;28;20622;-72
2023/12/15 11:02:17;;;;;;;0.00;0.00;;;7.30;99.90;;;;;;5091663;28;20172;-71
2023/12/15 11:04:43;;;;;;;0.00;0.00;;;7.20;99.90;;;;;;5091854;28;20172;-71
2023/12/15 11:07:11;;;;;;;0.00;0.00;;;7.20;99.90;;;;;;5091560;28;20179;-71
2023/12/15 11:09:37;;;;;;;0.00;0.00;;;7.10;99.90;;;;;;5091692;28;20207;-71
2023/12/15 11:12:28;;;;;;;0.00;0.00;;;7.10;99.90;;;;;;5091754;28;20176;-72
2023/12/15 11:15:00;;;;;;;0.15;0.15;;;7.20;99.90;;;;;;5091545;28;20180;-71
2023/12/15 11:17:27;;;;;;;0.00;0.00;;;7.10;99.90;;;;;;5091627;28;20182;-71
2023/12/15 11:20:03;;;;;;;0.00;0.00;;;7.10;99.90;;;;;;5091280;28;20195;-72
2023/12/15 11:22:28;;;;;;;0.00;0.00;;;7.10;99.90;;;;;;5091531;28;20262;-72
2023/12/15 11:24:56;;;;;;;0.00;0.00;;;7.10;99.90;;;;;;5091480;28;20306;-71
2023/12/15 11:27:22;;;;;;;0.10;0.10;;;7.10;99.90;;;;;;5091430;28;20168;-71
2023/12/15 11:29:48;;;;;;;0.00;0.00;;;7.00;99.90;;;;;;5091449;28;20179;-70
2023/12/15 11:32:35;;;;;;;0.00;0.00;;;7.10;99.90;;;;;;5090129;28;20538;-72
2023/12/15 11:35:03;;;;;;;0.00;0.00;;;7.20;99.90;;;;;;5091126;28;20175;-71
2023/12/15 11:37:30;;;;;;;0.00;0.00;;;7.20;99.90;;;;;;5094167;28;20231;-71
2023/12/15 11:39:56;;;;;;;0.10;0.10;;;7.30;99.90;;;;;;5091175;28;20675;-71
2023/12/15 11:42:23;;;;;;;0.00;0.00;;;7.30;99.90;;;;;;5091266;28;20172;-72
2023/12/15 11:44:49;;;;;;;0.00;0.00;;;7.40;99.90;;;;;;5091007;28;20654;-71
2023/12/15 11:47:14;;;;;;;0.00;0.00;;;7.40;99.90;;;;;;5091013;28;20187;-71
2023/12/15 11:49:42;;;;;;;0.38;0.38;;;7.40;99.90;;;;;;5091087;28;20195;-71
2023/12/15 11:52:15;;;;;;;0.00;0.00;;;7.40;99.90;;;;;;5091049;28;20195;-72
2023/12/15 11:54:41;;;;;;;0.15;0.15;;;7.40;99.90;;;;;;5091117;28;20184;-71
2023/12/15 11:57:07;;;;;;;0.00;0.00;;;7.40;99.90;;;;;;5090935;28;20592;-71
2023/12/15 11:59:40;;;;;;;0.00;0.00;;;7.40;99.90;;;;;;5090779;28;20302;-71
2023/12/15 12:02:06;;;;;;;0.00;0.00;;;7.40;99.90;;;;;;5091053;28;20702;-71
2023/12/15 12:04:31;;;;;;;0.00;0.00;;;7.40;99.90;;;;;;5090977;28;20267;-72
2023/12/15 12:06:58;;;;;;;0.00;0.00;;;7.40;99.90;;;;;;5090862;28;20176;-71
2023/12/15 12:09:24;;;;;;;0.00;0.00;;;7.40;99.90;;;;;;5090987;28;20179;-72
2023/12/15 12:11:51;;;;;;;0.17;0.17;;;7.30;99.90;;;;;;5090643;28;20180;-72
2023/12/15 12:14:16;;;;;;;0.00;0.00;;;7.20;99.90;;;;;;5090661;28;20184;-71
2023/12/15 12:16:48;;;;;;;0.00;0.00;;;7.20;99.90;;;;;;5090919;28;20244;-71
2023/12/15 12:19:14;;;;;;;0.00;0.00;;;7.20;99.90;;;;;;5090685;28;20241;-72
2023/12/15 12:21:39;;;;;;;0.00;0.00;;;7.20;99.90;;;;;;5089724;28;20226;-72
2023/12/15 12:24:06;;;;;;;0.00;0.00;;;7.10;99.90;;;;;;5090820;28;20168;-71
2023/12/15 12:26:31;;;;;;;0.10;0.10;;;7.20;99.90;;;;;;5090736;28;20562;-72
2023/12/15 12:28:57;;;;;;;0.10;0.10;;;7.10;99.90;;;;;;5092613;28;20213;-72
2023/12/15 12:31:24;;;;;;;0.00;0.00;;;7.10;99.90;;;;;;5094986;28;20532;-71
2023/12/15 12:33:50;;;;;;;0.00;0.00;;;7.10;99.90;;;;;;5094761;28;20184;-72
2023/12/15 12:36:17;;;;;;;0.00;0.00;;;7.10;99.90;;;;;;5094771;28;20177;-71
2023/12/15 12:38:43;;;;;;;0.00;0.00;;;7.00;99.90;;;;;;5097898;28;20180;-71
2023/12/15 12:41:08;;;;;;;0.00;0.00;;;7.00;99.90;;;;;;5094560;28;20547;-72
2023/12/15 12:43:34;;;;;;;0.00;0.00;;;7.10;99.90;;;;;;5094674;28;20179;-72
2023/12/15 12:45:59;;;;;;;0.00;0.00;;;7.10;99.90;;;;;;5094550;28;20188;-71
2023/12/15 12:48:25;;;;;;;0.00;0.00;;;7.10;99.90;;;;;;5094636;28;20607;-72
2023/12/15 12:50:51;;;;;;;0.03;0.03;;;7.10;99.90;;;;;;5093158;28;20567;-72
2023/12/15 12:53:16;;;;;;;0.00;0.00;;;7.10;99.90;;;;;;5094443;28;20207;-71